Time;durP1;ratioP1;P1;durP2;ratioP2;P2;SDS_P1;SDS_P2;PMS_P1;PMS_P2;Temp;Humidity;BMP_temperature;BMP_pressure;BME280_temperature;BME280_humidity;BME280_pressure;Samples;Min_cycle;Max_cycle;Signal;HPM_P1;HPM_P2
2021/12/25 00:00:55;;;;;;;0.00;0.00;;;7.30;94.50;;;;;;4179352;28;20081;-59
2021/12/25 00:03:19;;;;;;;0.00;0.00;;;7.20;94.70;;;;;;4178993;28;20045;-53
2021/12/25 00:05:44;;;;;;;0.00;0.00;;;7.30;94.60;;;;;;4179032;28;20115;-52
2021/12/25 00:08:06;;;;;;;0.00;0.00;;;7.40;94.40;;;;;;4195191;28;20068;-56
2021/12/25 00:10:30;;;;;;;0.00;0.00;;;7.30;94.30;;;;;;4181731;28;20155;-53
2021/12/25 00:12:54;;;;;;;0.00;0.00;;;7.30;94.40;;;;;;4195628;28;20052;-55
2021/12/25 00:15:16;;;;;;;0.00;0.00;;;7.30;94.30;;;;;;4195489;28;20131;-58
2021/12/25 00:17:39;;;;;;;0.00;0.00;;;7.30;94.10;;;;;;4195355;28;20060;-56
2021/12/25 00:20:02;;;;;;;0.00;0.00;;;7.40;94.10;;;;;;4192803;28;20048;-54
2021/12/25 00:22:24;;;;;;;0.00;0.00;;;7.40;94.10;;;;;;4178535;28;20049;-55
2021/12/25 00:24:48;;;;;;;0.00;0.00;;;7.30;94.20;;;;;;4191559;28;20466;-56
2021/12/25 00:27:41;;;;;;;0.00;0.00;;;7.30;94.30;;;;;;4192574;28;20037;-55
2021/12/25 00:30:10;;;;;;;0.00;0.00;;;7.30;94.20;;;;;;4181116;28;20533;-54
2021/12/25 00:34:55;;;;;;;0.00;0.00;;;7.30;94.00;;;;;;4181247;28;20045;-55
2021/12/25 00:37:17;;;;;;;0.00;0.00;;;7.20;94.30;;;;;;4181152;28;20155;-56
2021/12/25 00:39:43;;;;;;;0.00;0.00;;;7.20;94.40;;;;;;4194927;28;20094;-53
2021/12/25 00:42:06;;;;;;;0.00;0.00;;;7.20;94.30;;;;;;4194258;28;20095;-52
2021/12/25 00:44:29;;;;;;;0.00;0.00;;;7.30;94.10;;;;;;4195034;28;20131;-54
2021/12/25 00:46:51;;;;;;;0.00;0.00;;;7.30;94.10;;;;;;4180998;28;20126;-55
2021/12/25 00:49:14;;;;;;;0.00;0.00;;;7.30;94.20;;;;;;4194809;28;20078;-59
2021/12/25 00:51:36;;;;;;;0.00;0.00;;;7.10;94.40;;;;;;4194642;28;20099;-59
2021/12/25 00:54:00;;;;;;;0.00;0.00;;;7.20;94.20;;;;;;4194494;28;20051;-56
2021/12/25 00:56:22;;;;;;;0.00;0.00;;;7.20;94.00;;;;;;4194898;28;20131;-54
2021/12/25 00:58:44;;;;;;;0.00;0.00;;;7.20;94.00;;;;;;4194720;28;20044;-55
2021/12/25 01:01:08;;;;;;;0.00;0.00;;;7.10;94.10;;;;;;4180456;28;20064;-52
2021/12/25 01:03:33;;;;;;;0.00;0.00;;;7.20;94.20;;;;;;4208714;28;20051;-54
2021/12/25 01:05:56;;;;;;;0.00;0.00;;;7.10;94.00;;;;;;4178719;28;20045;-54
2021/12/25 01:08:19;;;;;;;0.00;0.00;;;7.20;94.10;;;;;;4178133;28;20501;-51
2021/12/25 01:10:43;;;;;;;0.00;0.00;;;7.10;94.10;;;;;;4177175;28;20513;-53
2021/12/25 01:13:11;;;;;;;0.00;0.00;;;7.20;94.00;;;;;;4169625;28;20100;-56
2021/12/25 01:16:33;;;;;;;0.00;0.00;;;6.90;94.30;;;;;;4178015;28;20538;-56
2021/12/25 01:37:16;;;;;;;0.00;0.00;;;6.30;96.90;;;;;;4188708;28;20498;-56
2021/12/25 01:41:42;;;;;;;0.00;0.00;;;6.40;96.60;;;;;;4145836;28;20053;-54
2021/12/25 01:49:23;;;;;;;0.00;0.00;;;6.70;96.00;;;;;;4208135;28;20486;-52
2021/12/25 01:51:46;;;;;;;0.00;0.00;;;6.70;95.90;;;;;;4180033;28;20052;-57
2021/12/25 01:54:08;;;;;;;0.00;0.00;;;6.70;95.80;;;;;;4193690;28;20488;-55
2021/12/25 01:56:31;;;;;;;0.00;0.00;;;6.70;95.90;;;;;;4193746;28;20093;-56
2021/12/25 01:58:53;;;;;;;0.00;0.00;;;6.70;96.00;;;;;;4179884;28;20110;-55
2021/12/25 02:01:16;;;;;;;0.00;0.00;;;6.80;96.00;;;;;;4193611;28;20527;-54
2021/12/25 02:03:40;;;;;;;0.00;0.00;;;6.80;95.80;;;;;;4179985;28;20056;-55
2021/12/25 02:06:08;;;;;;;0.00;0.00;;;6.90;95.80;;;;;;4207453;28;20513;-55
2021/12/25 02:08:31;;;;;;;0.00;0.00;;;7.00;95.60;;;;;;4179722;28;20060;-55
2021/12/25 02:10:55;;;;;;;0.00;0.00;;;7.10;95.40;;;;;;4193513;28;20041;-52
2021/12/25 02:13:19;;;;;;;0.00;0.00;;;7.10;95.30;;;;;;4193719;28;20068;-56
2021/12/25 02:15:47;;;;;;;0.00;0.00;;;7.30;95.10;;;;;;4179687;28;20132;-55
2021/12/25 02:18:21;;;;;;;0.00;0.00;;;7.20;95.00;;;;;;4179443;28;20414;-55
2021/12/25 02:21:40;;;;;;;0.00;0.00;;;7.20;95.00;;;;;;4193445;28;20370;-56
2021/12/25 02:23:57;;;;;;;0.00;0.00;;;7.10;94.90;;;;;;4178892;28;20168;-54
2021/12/25 02:26:21;;;;;;;0.00;0.00;;;6.90;95.10;;;;;;4207534;28;20058;-55
2021/12/25 02:28:45;;;;;;;0.00;0.00;;;6.70;95.30;;;;;;4193655;28;20075;-53
2021/12/25 02:31:12;;;;;;;0.00;0.00;;;6.60;95.50;;;;;;4193280;28;20033;-55
2021/12/25 02:33:34;;;;;;;0.00;0.00;;;6.60;95.60;;;;;;4193720;28;20171;-54
2021/12/25 02:35:57;;;;;;;0.00;0.00;;;6.50;95.70;;;;;;4178003;28;20049;-56
2021/12/25 02:38:20;;;;;;;0.00;0.00;;;6.50;95.80;;;;;;4177103;28;20037;-55
2021/12/25 02:40:43;;;;;;;0.00;0.00;;;6.40;96.00;;;;;;4176511;28;20095;-56
2021/12/25 02:43:05;;;;;;;0.00;0.00;;;6.40;96.00;;;;;;4177204;28;20109;-52
2021/12/25 02:45:28;;;;;;;0.00;0.00;;;6.30;96.20;;;;;;4176966;28;20041;-55
2021/12/25 02:47:56;;;;;;;0.00;0.00;;;6.40;96.20;;;;;;4192062;28;20418;-53
2021/12/25 02:50:28;;;;;;;0.00;0.00;;;6.50;95.80;;;;;;4180435;28;20127;-56
2021/12/25 02:52:51;;;;;;;0.00;0.00;;;6.40;95.80;;;;;;4166482;28;20445;-53
2021/12/25 02:55:13;;;;;;;0.00;0.00;;;6.30;95.90;;;;;;4194025;28;20510;-57
2021/12/25 02:57:36;;;;;;;0.00;0.00;;;6.40;96.00;;;;;;4180053;28;20056;-55
2021/12/25 02:59:59;;;;;;;0.00;0.00;;;6.40;96.00;;;;;;4180607;28;20045;-55
2021/12/25 03:02:21;;;;;;;0.00;0.00;;;6.40;96.00;;;;;;4179611;28;20077;-52
2021/12/25 03:04:48;;;;;;;0.00;0.00;;;6.50;95.60;;;;;;4179993;28;20049;-53
2021/12/25 03:07:11;;;;;;;0.00;0.00;;;6.70;95.40;;;;;;4179812;28;20053;-57
2021/12/25 03:09:35;;;;;;;0.00;0.00;;;6.70;95.10;;;;;;4179655;28;20048;-52
2021/12/25 03:11:58;;;;;;;0.00;0.00;;;6.70;95.00;;;;;;4181748;28;20045;-54
2021/12/25 03:14:33;;;;;;;0.00;0.00;;;6.60;94.90;;;;;;4195608;28;20048;-53
2021/12/25 03:16:55;;;;;;;0.00;0.00;;;6.50;94.90;;;;;;4196253;28;20052;-57
2021/12/25 03:19:26;;;;;;;0.00;0.00;;;6.50;94.80;;;;;;4182354;28;20049;-55
2021/12/25 03:21:50;;;;;;;0.00;0.00;;;6.50;94.60;;;;;;4181695;28;20539;-54
2021/12/25 03:24:15;;;;;;;0.00;0.00;;;6.50;94.50;;;;;;4196048;28;20044;-54
2021/12/25 03:26:38;;;;;;;0.00;0.00;;;6.50;94.40;;;;;;4196236;28;20075;-53
2021/12/25 03:29:03;;;;;;;0.00;0.00;;;6.40;94.50;;;;;;4196208;28;20060;-53
2021/12/25 03:31:27;;;;;;;0.00;0.00;;;6.20;94.80;;;;;;4181838;28;20505;-54
2021/12/25 03:33:53;;;;;;;0.00;0.00;;;6.20;94.80;;;;;;4165335;28;20132;-54
2021/12/25 03:36:15;;;;;;;0.00;0.00;;;6.20;94.90;;;;;;4179638;28;20065;-54
2021/12/25 03:38:38;;;;;;;0.00;0.00;;;6.30;94.70;;;;;;4165487;28;20056;-55
2021/12/25 03:41:01;;;;;;;0.00;0.00;;;6.20;94.80;;;;;;4189460;28;20060;-53
2021/12/25 03:43:24;;;;;;;0.00;0.00;;;6.20;94.80;;;;;;4172712;28;20510;-53
2021/12/25 03:45:48;;;;;;;0.00;0.00;;;6.10;94.90;;;;;;4165134;28;20144;-56
2021/12/25 03:48:28;;;;;;;0.00;0.00;;;6.10;94.70;;;;;;4179451;28;20380;-57
2021/12/25 03:58:55;;;;;;;0.00;0.00;;;6.10;94.20;;;;;;4191848;28;20040;-57
2021/12/25 04:04:14;;;;;;;0.00;0.00;;;6.20;94.10;;;;;;4178795;28;20055;-59
2021/12/25 04:06:47;;;;;;;0.00;0.00;;;6.00;94.20;;;;;;4179050;28;20122;-56
2021/12/25 04:09:20;;;;;;;0.00;0.00;;;6.10;94.10;;;;;;4165155;28;20056;-57
2021/12/25 04:11:43;;;;;;;0.00;0.00;;;6.10;94.10;;;;;;4178664;28;20565;-58
2021/12/25 04:14:07;;;;;;;0.00;0.00;;;6.10;94.40;;;;;;4209225;28;20382;-58
2021/12/25 04:16:30;;;;;;;0.00;0.00;;;6.00;94.50;;;;;;4195574;28;20040;-57
2021/12/25 04:18:54;;;;;;;0.00;0.00;;;5.90;94.40;;;;;;4195537;28;20131;-59
2021/12/25 04:21:18;;;;;;;0.00;0.00;;;6.00;94.30;;;;;;4194964;28;20049;-55
2021/12/25 04:23:42;;;;;;;0.00;0.00;;;6.00;94.10;;;;;;4181320;28;20041;-57
2021/12/25 04:26:05;;;;;;;0.00;0.00;;;6.10;94.30;;;;;;4187316;28;20091;-58
2021/12/25 04:29:02;;;;;;;0.00;0.00;;;6.00;94.30;;;;;;4181400;28;20545;-58
2021/12/25 05:06:15;;;;;;;0.00;0.00;;;5.90;95.70;;;;;;4194315;28;20044;-57
2021/12/25 05:08:38;;;;;;;0.00;0.00;;;6.00;95.50;;;;;;4187519;28;20045;-51
2021/12/25 05:11:01;;;;;;;0.00;0.00;;;6.10;95.20;;;;;;4177212;28;20537;-57
2021/12/25 05:13:25;;;;;;;0.00;0.00;;;6.10;94.90;;;;;;4175122;28;20044;-58
2021/12/25 05:15:49;;;;;;;0.00;0.00;;;6.10;94.70;;;;;;4177997;28;20114;-56
2021/12/25 05:18:12;;;;;;;0.00;0.00;;;6.10;94.70;;;;;;4194629;28;20110;-58
2021/12/25 05:20:34;;;;;;;0.00;0.00;;;6.00;94.50;;;;;;4208096;28;20040;-58
2021/12/25 05:22:57;;;;;;;0.00;0.00;;;5.90;94.60;;;;;;4180261;28;20083;-54
2021/12/25 05:25:23;;;;;;;0.00;0.00;;;5.90;94.70;;;;;;4180522;28;20044;-53
2021/12/25 05:27:50;;;;;;;0.00;0.00;;;6.00;94.70;;;;;;4207969;28;20144;-50
2021/12/25 05:30:13;;;;;;;0.00;0.00;;;6.10;94.50;;;;;;4180576;28;20045;-57
2021/12/25 05:32:55;;;;;;;0.00;0.00;;;5.90;94.40;;;;;;4193957;28;20044;-55
2021/12/25 05:35:57;;;;;;;0.00;0.00;;;5.70;94.70;;;;;;4192949;28;20055;-52
2021/12/25 05:38:41;;;;;;;0.00;0.00;;;5.70;94.90;;;;;;4165020;28;20128;-56
2021/12/25 05:41:14;;;;;;;0.00;0.00;;;5.80;95.00;;;;;;4155382;28;20148;-56
2021/12/25 05:43:37;;;;;;;0.00;0.00;;;5.90;94.50;;;;;;4163644;28;20045;-56
2021/12/25 05:46:00;;;;;;;0.00;0.00;;;5.90;94.50;;;;;;4191006;28;20490;-56
2021/12/25 05:48:35;;;;;;;0.00;0.00;;;6.00;94.50;;;;;;4177616;28;20334;-57
2021/12/25 05:51:09;;;;;;;0.00;0.00;;;5.90;94.50;;;;;;4163421;28;20132;-58
2021/12/25 05:53:42;;;;;;;0.00;0.00;;;5.90;94.50;;;;;;4177306;28;20053;-54
2021/12/25 05:56:07;;;;;;;0.00;0.00;;;5.80;94.40;;;;;;4193609;28;20045;-60
2021/12/25 05:58:53;;;;;;;0.00;0.00;;;5.60;94.70;;;;;;4208085;28;20048;-55
2021/12/25 06:01:29;;;;;;;0.00;0.00;;;5.40;95.10;;;;;;4193667;28;20051;-56
2021/12/25 06:03:52;;;;;;;0.00;0.00;;;5.30;95.40;;;;;;4193550;28;20044;-55
2021/12/25 06:06:16;;;;;;;0.00;0.00;;;5.40;95.40;;;;;;4194509;28;20050;-57
2021/12/25 06:08:38;;;;;;;0.00;0.00;;;5.70;95.30;;;;;;4193811;28;20040;-58
2021/12/25 06:11:03;;;;;;;0.00;0.00;;;5.70;94.90;;;;;;4193941;28;20471;-56
2021/12/25 06:13:30;;;;;;;0.00;0.00;;;5.70;94.90;;;;;;4179831;28;20048;-58
2021/12/25 06:15:53;;;;;;;0.00;0.00;;;5.70;94.90;;;;;;4206546;28;20385;-55
2021/12/25 06:18:38;;;;;;;0.00;0.00;;;5.60;95.10;;;;;;4177102;28;20068;-55
2021/12/25 06:21:14;;;;;;;0.00;0.00;;;5.50;95.20;;;;;;4176783;28;20091;-54
2021/12/25 06:24:04;;;;;;;0.00;0.00;;;5.60;95.20;;;;;;4176565;28;20049;-55
2021/12/25 06:26:40;;;;;;;0.00;0.00;;;5.70;95.10;;;;;;4177046;28;20076;-54
2021/12/25 06:29:20;;;;;;;0.00;0.00;;;5.90;94.80;;;;;;4176972;28;20128;-54
2021/12/25 06:32:09;;;;;;;0.00;0.00;;;6.00;94.60;;;;;;4190210;28;20039;-54
2021/12/25 06:35:04;;;;;;;0.00;0.00;;;6.10;94.40;;;;;;4160241;28;20049;-59
2021/12/25 06:38:03;;;;;;;0.00;0.00;;;6.10;94.30;;;;;;4173257;28;20064;-56
2021/12/25 06:40:40;;;;;;;0.00;0.00;;;6.20;94.20;;;;;;4176675;28;20056;-54
2021/12/25 06:43:03;;;;;;;0.00;0.00;;;6.20;94.20;;;;;;4176757;28;20132;-56
2021/12/25 06:45:26;;;;;;;0.00;0.00;;;6.10;94.30;;;;;;4176889;28;20131;-56
2021/12/25 06:47:49;;;;;;;0.00;0.00;;;6.20;94.40;;;;;;4192704;28;20080;-56
2021/12/25 06:50:31;;;;;;;0.00;0.00;;;6.30;94.30;;;;;;4190986;28;20060;-55
2021/12/25 06:53:23;;;;;;;0.00;0.00;;;6.30;94.10;;;;;;4176935;28;20053;-56
2021/12/25 06:55:51;;;;;;;0.00;0.00;;;6.00;94.50;;;;;;4193159;28;20076;-55
2021/12/25 06:58:33;;;;;;;0.00;0.00;;;5.90;95.30;;;;;;4193410;28;20410;-53
2021/12/25 07:00:56;;;;;;;0.00;0.00;;;5.90;95.60;;;;;;4193095;28;20052;-53
2021/12/25 07:03:20;;;;;;;0.00;0.00;;;6.00;95.50;;;;;;4193343;28;20050;-53
2021/12/25 07:06:06;;;;;;;0.00;0.00;;;6.10;95.40;;;;;;4176475;28;20049;-54
2021/12/25 07:08:51;;;;;;;0.00;0.00;;;6.10;95.40;;;;;;4169934;28;20053;-56
2021/12/25 07:11:51;;;;;;;0.00;0.00;;;6.10;95.40;;;;;;4142566;28;20050;-55
2021/12/25 07:14:46;;;;;;;0.00;0.00;;;6.10;95.10;;;;;;4187152;28;20079;-55
2021/12/25 07:17:27;;;;;;;0.00;0.00;;;6.10;95.10;;;;;;4196190;28;20047;-52
2021/12/25 07:19:58;;;;;;;;;;;6.20;95.00;;;;;;4193463;28;20117;-55
2021/12/25 07:22:39;;;;;;;0.00;0.00;;;6.20;94.90;;;;;;4193196;28;19999;-52
2021/12/25 07:25:20;;;;;;;0.00;0.00;;;6.10;94.70;;;;;;4193065;28;20102;-51
2021/12/25 07:27:58;;;;;;;0.00;0.00;;;6.10;94.70;;;;;;4192864;28;20557;-55
2021/12/25 07:30:21;;;;;;;0.00;0.00;;;6.20;94.70;;;;;;4193212;28;20041;-53
2021/12/25 07:32:45;;;;;;;0.00;0.00;;;6.20;94.70;;;;;;4192961;28;20044;-56
2021/12/25 07:35:09;;;;;;;0.00;0.00;;;6.30;94.70;;;;;;4195980;28;20139;-53
2021/12/25 07:37:32;;;;;;;0.00;0.00;;;6.30;94.60;;;;;;4195916;28;20041;-55
2021/12/25 07:39:54;;;;;;;0.00;0.00;;;6.30;94.50;;;;;;4209893;28;20060;-56
2021/12/25 07:42:16;;;;;;;0.00;0.00;;;6.40;94.40;;;;;;4195617;28;20149;-55
2021/12/25 07:45:05;;;;;;;0.00;0.00;;;6.30;94.20;;;;;;4195846;28;20071;-56
2021/12/25 07:47:27;;;;;;;0.00;0.00;;;6.10;94.70;;;;;;4195894;28;20048;-55
2021/12/25 07:49:50;;;;;;;0.00;0.00;;;6.00;94.90;;;;;;4191022;28;20056;-56
2021/12/25 07:52:12;;;;;;;0.00;0.00;;;6.00;95.10;;;;;;4165303;28;20384;-57
2021/12/25 07:54:35;;;;;;;0.00;0.00;;;5.90;95.30;;;;;;4177434;28;20060;-57
2021/12/25 07:56:57;;;;;;;0.00;0.00;;;5.80;95.60;;;;;;4162736;28;20045;-55
2021/12/25 07:59:20;;;;;;;0.00;0.00;;;5.80;95.70;;;;;;4162361;28;20053;-57
2021/12/25 08:01:42;;;;;;;0.00;0.00;;;5.80;95.70;;;;;;4180000;28;20055;-56
2021/12/25 08:04:05;;;;;;;0.00;0.00;;;5.80;95.80;;;;;;4162136;28;20045;-55
2021/12/25 08:06:30;;;;;;;0.00;0.00;;;5.80;95.80;;;;;;4162286;28;20046;-58
2021/12/25 08:08:55;;;;;;;0.00;0.00;;;5.80;95.80;;;;;;4146071;28;20569;-56
2021/12/25 08:11:18;;;;;;;0.00;0.00;;;5.80;95.90;;;;;;4172127;28;20041;-55
2021/12/25 08:13:44;;;;;;;0.00;0.00;;;5.80;95.80;;;;;;4162378;28;20100;-54
2021/12/25 08:16:06;;;;;;;0.00;0.00;;;5.80;95.90;;;;;;4178338;28;20053;-57
2021/12/25 08:18:28;;;;;;;0.00;0.00;;;6.00;95.80;;;;;;4178706;28;20045;-54
2021/12/25 08:21:10;;;;;;;0.00;0.00;;;6.00;95.50;;;;;;4178299;28;20520;-55
2021/12/25 08:23:54;;;;;;;0.00;0.00;;;6.00;95.60;;;;;;4178283;28;20057;-54
2021/12/25 08:26:37;;;;;;;0.00;0.00;;;6.00;95.70;;;;;;4149848;28;20487;-53
2021/12/25 08:29:28;;;;;;;;;;;6.00;95.60;;;;;;4147483;28;20057;-56
2021/12/25 08:32:09;;;;;;;0.00;0.00;;;6.00;95.70;;;;;;4161551;28;19931;-54
2021/12/25 08:34:50;;;;;;;0.00;0.00;;;6.10;95.60;;;;;;4162020;28;20068;-54
2021/12/25 08:37:22;;;;;;;0.00;0.00;;;6.10;95.60;;;;;;4161852;28;20069;-53
2021/12/25 08:39:45;;;;;;;0.00;0.00;;;6.10;95.60;;;;;;4162147;28;20052;-56
2021/12/25 08:42:09;;;;;;;0.00;0.00;;;6.10;95.60;;;;;;4158790;28;20044;-55
2021/12/25 08:44:40;;;;;;;0.00;0.00;;;6.10;95.40;;;;;;4145245;28;20061;-54
2021/12/25 08:47:05;;;;;;;0.00;0.00;;;6.20;95.30;;;;;;4145385;28;20119;-52
2021/12/25 08:49:29;;;;;;;0.00;0.00;;;6.40;95.00;;;;;;4145419;28;20042;-54
2021/12/25 08:51:52;;;;;;;0.00;0.00;;;6.50;94.80;;;;;;4157650;28;20139;-56
2021/12/25 08:54:15;;;;;;;0.00;0.00;;;6.50;94.80;;;;;;4158039;28;20647;-58
2021/12/25 08:56:38;;;;;;;0.00;0.00;;;6.50;94.90;;;;;;4144969;28;20038;-54
2021/12/25 08:59:01;;;;;;;0.00;0.00;;;6.70;94.80;;;;;;4159173;28;20062;-56
2021/12/25 09:01:23;;;;;;;0.00;0.00;;;6.60;94.50;;;;;;4145393;28;20070;-56
2021/12/25 09:03:47;;;;;;;0.00;0.00;;;6.60;94.70;;;;;;4162077;28;20060;-54
2021/12/25 09:06:10;;;;;;;0.00;0.00;;;6.50;95.00;;;;;;4158055;28;20042;-55
2021/12/25 09:08:32;;;;;;;0.00;0.00;;;6.60;95.10;;;;;;4146035;28;20474;-56
2021/12/25 09:10:55;;;;;;;0.00;0.00;;;6.60;94.70;;;;;;4145518;28;20452;-57
2021/12/25 09:13:17;;;;;;;0.00;0.00;;;6.70;94.70;;;;;;4145579;28;20065;-60
2021/12/25 09:15:40;;;;;;;0.00;0.00;;;6.90;94.60;;;;;;4145575;28;20126;-60
2021/12/25 09:18:04;;;;;;;0.00;0.00;;;7.00;94.40;;;;;;4175275;28;20087;-59
2021/12/25 09:20:26;;;;;;;0.00;0.00;;;7.10;94.10;;;;;;4161450;28;20155;-63
2021/12/25 09:22:49;;;;;;;0.00;0.00;;;7.10;93.90;;;;;;4161637;28;20140;-60
2021/12/25 09:25:13;;;;;;;0.00;0.00;;;7.20;93.90;;;;;;4175743;28;20084;-62
2021/12/25 09:27:35;;;;;;;0.00;0.00;;;7.30;93.90;;;;;;4161870;28;20116;-61
2021/12/25 09:29:58;;;;;;;0.00;0.00;;;7.40;93.80;;;;;;4175132;28;20045;-60
2021/12/25 09:32:20;;;;;;;0.00;0.00;;;7.40;93.70;;;;;;4175236;28;20072;-59
2021/12/25 09:34:42;;;;;;;0.00;0.00;;;7.10;93.80;;;;;;4161677;28;20104;-60
2021/12/25 09:37:06;;;;;;;0.00;0.00;;;7.10;94.10;;;;;;4161585;28;20049;-59
2021/12/25 09:39:28;;;;;;;0.00;0.00;;;7.10;94.00;;;;;;4175334;28;20047;-60
2021/12/25 09:41:51;;;;;;;0.00;0.00;;;7.00;93.90;;;;;;4174787;28;20054;-61
2021/12/25 09:44:13;;;;;;;0.00;0.00;;;7.10;94.00;;;;;;4161789;28;20502;-61
2021/12/25 09:46:36;;;;;;;0.00;0.00;;;7.10;93.80;;;;;;4161492;28;20041;-61
2021/12/25 09:49:00;;;;;;;0.00;0.00;;;7.10;93.80;;;;;;4161491;28;20531;-65
2021/12/25 09:51:23;;;;;;;0.00;0.00;;;6.90;94.10;;;;;;4160991;28;20076;-59
2021/12/25 09:54:02;;;;;;;0.00;0.00;;;6.70;94.40;;;;;;4175273;28;20057;-59
2021/12/25 09:56:26;;;;;;;0.00;0.00;;;6.70;94.60;;;;;;4155500;28;20168;-60
2021/12/25 09:58:49;;;;;;;0.00;0.00;;;6.60;94.80;;;;;;4159483;28;20052;-60
2021/12/25 10:01:11;;;;;;;0.00;0.00;;;6.70;94.70;;;;;;4149273;28;20054;-59
2021/12/25 10:03:48;;;;;;;0.00;0.00;;;6.70;94.70;;;;;;4145142;28;20124;-59
2021/12/25 10:06:26;;;;;;;0.00;0.00;;;6.70;94.80;;;;;;4160671;28;20523;-59
2021/12/25 10:08:49;;;;;;;0.00;0.00;;;6.50;95.20;;;;;;4160843;28;20046;-63
2021/12/25 10:11:17;;;;;;;0.00;0.00;;;6.40;95.80;;;;;;4174642;28;20055;-63
2021/12/25 10:13:41;;;;;;;0.00;0.00;;;6.30;95.90;;;;;;4174945;28;20122;-61
2021/12/25 10:16:40;;;;;;;0.00;0.00;;;6.30;96.00;;;;;;4174464;28;20114;-58
2021/12/25 10:19:15;;;;;;;0.00;0.00;;;6.40;96.10;;;;;;4113993;28;20223;-60
2021/12/25 10:21:37;;;;;;;0.00;0.00;;;6.50;95.80;;;;;;4113459;28;20046;-58
2021/12/25 10:24:15;;;;;;;0.00;0.00;;;6.40;95.80;;;;;;4113489;28;20097;-59
2021/12/25 10:26:40;;;;;;;0.00;0.00;;;6.40;96.00;;;;;;4113965;28;20512;-67
2021/12/25 10:29:23;;;;;;;0.00;0.00;;;6.20;96.00;;;;;;4113970;28;20477;-65
2021/12/25 10:31:46;;;;;;;0.00;0.00;;;6.20;96.10;;;;;;4113746;28;20101;-61
2021/12/25 10:34:23;;;;;;;0.00;0.00;;;6.30;96.20;;;;;;4113367;28;20053;-60
2021/12/25 10:36:46;;;;;;;0.00;0.00;;;6.60;96.00;;;;;;4113880;28;20074;-59
2021/12/25 10:39:17;;;;;;;0.00;0.00;;;6.80;95.60;;;;;;4113778;28;20121;-63
2021/12/25 10:41:52;;;;;;;0.00;0.00;;;6.90;95.40;;;;;;4113498;28;20050;-59
2021/12/25 10:44:23;;;;;;;0.00;0.00;;;7.10;95.30;;;;;;4113411;28;20050;-60
2021/12/25 10:46:53;;;;;;;0.00;0.00;;;7.20;95.10;;;;;;4113663;28;20058;-59
2021/12/25 10:49:16;;;;;;;0.00;0.00;;;7.40;94.70;;;;;;4101721;28;20054;-59
2021/12/25 10:51:38;;;;;;;0.00;0.00;;;7.50;94.70;;;;;;4112602;28;20117;-60
2021/12/25 10:54:02;;;;;;;0.00;0.00;;;7.70;94.50;;;;;;4158387;28;20049;-60
2021/12/25 10:56:35;;;;;;;0.00;0.00;;;7.80;94.40;;;;;;4144604;28;20058;-57
2021/12/25 10:59:04;;;;;;;0.00;0.00;;;7.90;94.20;;;;;;4144405;28;20110;-53
2021/12/25 11:01:37;;;;;;;0.00;0.00;;;7.90;94.10;;;;;;4144154;28;20080;-57
2021/12/25 11:03:59;;;;;;;0.00;0.00;;;7.90;94.00;;;;;;4158559;28;20061;-57
2021/12/25 11:06:22;;;;;;;0.00;0.00;;;7.90;93.90;;;;;;4144668;28;20641;-57
2021/12/25 11:08:47;;;;;;;0.00;0.00;;;7.80;93.90;;;;;;4118730;28;20093;-59
2021/12/25 11:11:19;;;;;;;0.00;0.00;;;7.80;94.10;;;;;;4161034;28;20041;-59
2021/12/25 11:13:48;;;;;;;0.00;0.00;;;7.70;94.30;;;;;;4147559;28;20395;-59
2021/12/25 11:16:26;;;;;;;0.00;0.00;;;7.80;94.30;;;;;;4147125;28;20420;-59
2021/12/25 11:19:36;;;;;;;0.00;0.00;;;7.80;94.40;;;;;;4147472;28;20133;-58
2021/12/25 11:21:49;;;;;;;0.00;0.00;;;7.80;94.30;;;;;;4133346;28;20102;-58
2021/12/25 11:24:16;;;;;;;0.00;0.00;;;7.80;94.20;;;;;;4146935;28;20478;-58
2021/12/25 11:26:41;;;;;;;0.00;0.00;;;7.70;94.20;;;;;;4161003;28;20049;-58
2021/12/25 11:29:12;;;;;;;0.00;0.00;;;7.60;94.40;;;;;;4147344;28;20487;-57
2021/12/25 11:31:36;;;;;;;0.00;0.00;;;7.50;94.60;;;;;;4147011;28;20066;-58
2021/12/25 11:33:59;;;;;;;0.00;0.00;;;7.40;94.50;;;;;;4163035;28;20069;-57
2021/12/25 11:36:21;;;;;;;0.00;0.00;;;7.20;94.70;;;;;;4177452;28;20445;-59
2021/12/25 11:38:44;;;;;;;0.00;0.00;;;7.00;95.40;;;;;;4163419;28;20041;-59
2021/12/25 11:41:09;;;;;;;0.00;0.00;;;7.00;95.60;;;;;;4163059;28;20037;-58
2021/12/25 11:43:39;;;;;;;0.00;0.00;;;7.00;95.70;;;;;;4163116;28;20049;-59
2021/12/25 11:46:06;;;;;;;0.00;0.00;;;7.00;95.80;;;;;;4149045;28;20053;-59
2021/12/25 11:48:29;;;;;;;0.00;0.00;;;6.90;96.00;;;;;;4177068;28;20105;-72
2021/12/25 11:50:52;;;;;;;0.00;0.00;;;6.80;96.20;;;;;;4176877;28;20414;-66
2021/12/25 11:53:41;;;;;;;0.00;0.00;;;6.80;96.60;;;;;;4163043;28;20045;-60
2021/12/25 11:56:26;;;;;;;0.00;0.00;;;6.90;96.50;;;;;;4162770;28;20078;-61
2021/12/25 11:58:52;;;;;;;0.00;0.00;;;7.00;96.50;;;;;;4176861;28;20061;-76
2021/12/25 12:01:31;;;;;;;0.00;0.00;;;7.20;96.30;;;;;;4162971;28;20498;-59
2021/12/25 12:04:10;;;;;;;0.00;0.00;;;7.40;96.30;;;;;;4176375;28;20084;-59
2021/12/25 12:06:48;;;;;;;0.00;0.00;;;7.30;96.40;;;;;;4163098;28;20096;-65
2021/12/25 12:09:33;;;;;;;0.00;0.00;;;7.50;96.90;;;;;;4151976;28;20072;-59
2021/12/25 12:12:27;;;;;;;0.00;0.00;;;7.70;96.70;;;;;;4158879;28;20045;-63
2021/12/25 12:15:10;;;;;;;0.00;0.00;;;7.80;96.60;;;;;;4162825;28;20069;-75
2021/12/25 12:17:51;;;;;;;0.00;0.00;;;7.90;96.70;;;;;;4162289;28;20530;-61
2021/12/25 12:20:35;;;;;;;0.00;0.00;;;8.00;96.70;;;;;;4162563;28;20076;-58
2021/12/25 12:23:05;;;;;;;0.00;0.00;;;8.10;96.70;;;;;;4162581;28;20077;-58
2021/12/25 12:28:02;;;;;;;0.00;0.00;;;8.30;96.40;;;;;;4162247;28;20391;-59
2021/12/25 12:30:47;;;;;;;0.00;0.00;;;8.40;96.30;;;;;;4162543;28;20049;-62
2021/12/25 12:33:17;;;;;;;0.00;0.00;;;8.50;96.20;;;;;;4162377;28;20152;-69
2021/12/25 12:35:42;;;;;;;0.00;0.00;;;8.50;96.10;;;;;;4176323;28;20443;-65
2021/12/25 12:38:26;;;;;;;0.00;0.00;;;8.60;96.00;;;;;;4161649;28;20075;-64
2021/12/25 12:41:14;;;;;;;0.00;0.00;;;8.60;95.90;;;;;;4176035;28;20080;-74
2021/12/25 12:43:50;;;;;;;0.00;0.00;;;8.50;96.00;;;;;;4162475;28;20109;-60
2021/12/25 12:46:12;;;;;;;0.00;0.00;;;8.40;96.20;;;;;;4158269;28;20042;-60
2021/12/25 12:48:35;;;;;;;0.00;0.00;;;8.30;96.30;;;;;;4145555;28;20046;-60
2021/12/25 12:50:58;;;;;;;0.00;0.00;;;8.20;96.20;;;;;;4145763;28;20049;-71
2021/12/25 12:53:22;;;;;;;0.00;0.00;;;8.00;95.90;;;;;;4159508;28;20050;-78
2021/12/25 12:55:48;;;;;;;0.00;0.00;;;7.90;95.90;;;;;;4159622;28;20570;-66
2021/12/25 12:58:23;;;;;;;0.00;0.00;;;7.70;96.00;;;;;;4158352;28;20042;-60
2021/12/25 13:00:55;;;;;;;0.00;0.00;;;7.50;96.40;;;;;;4131821;28;20137;-69
2021/12/25 13:03:18;;;;;;;0.00;0.00;;;7.30;96.80;;;;;;4131920;28;20061;-58
2021/12/25 13:05:44;;;;;;;0.00;0.00;;;7.10;97.10;;;;;;4145798;28;20135;-59
2021/12/25 13:08:17;;;;;;;0.00;0.00;;;7.00;97.20;;;;;;4145367;28;20057;-76
2021/12/25 13:10:51;;;;;;;0.00;0.00;;;6.90;97.50;;;;;;4145428;28;20053;-71
2021/12/25 13:13:29;;;;;;;0.00;0.00;;;6.70;97.90;;;;;;4159385;28;20045;-59
2021/12/25 13:16:01;;;;;;;0.00;0.00;;;6.70;98.20;;;;;;4161587;28;20565;-59
2021/12/25 13:18:39;;;;;;;0.00;0.00;;;6.60;98.40;;;;;;4175526;28;20053;-60
2021/12/25 13:21:08;;;;;;;0.00;0.00;;;6.60;98.70;;;;;;4161604;28;20052;-58
2021/12/25 13:23:37;;;;;;;0.00;0.00;;;6.70;98.80;;;;;;4175518;28;20045;-70
2021/12/25 13:26:08;;;;;;;0.00;0.00;;;6.70;98.80;;;;;;4159343;28;20046;-58
2021/12/25 13:28:33;;;;;;;0.00;0.00;;;6.90;98.80;;;;;;4145685;28;20597;-58
2021/12/25 13:30:59;;;;;;;0.00;0.00;;;6.90;98.50;;;;;;4144450;28;20074;-75
2021/12/25 13:33:24;;;;;;;0.00;0.00;;;6.90;98.50;;;;;;4145196;28;20053;-58
2021/12/25 13:35:48;;;;;;;0.00;0.00;;;7.00;98.50;;;;;;4144836;28;20093;-67
2021/12/25 13:38:10;;;;;;;0.00;0.00;;;7.20;98.30;;;;;;4145250;28;20052;-58
2021/12/25 13:40:37;;;;;;;0.00;0.00;;;7.20;98.10;;;;;;4145229;28;20057;-58
2021/12/25 13:43:10;;;;;;;0.00;0.00;;;7.20;98.00;;;;;;4144903;28;20146;-58
2021/12/25 13:45:34;;;;;;;0.00;0.00;;;7.20;98.10;;;;;;4145121;28;20054;-62
2021/12/25 13:47:57;;;;;;;0.00;0.00;;;7.20;98.20;;;;;;4159407;28;20076;-58
2021/12/25 13:50:19;;;;;;;0.00;0.00;;;7.20;98.20;;;;;;4144929;28;20053;-58
2021/12/25 13:52:49;;;;;;;0.00;0.00;;;7.30;98.20;;;;;;4131496;28;20497;-58
2021/12/25 13:55:23;;;;;;;0.00;0.00;;;7.30;98.20;;;;;;4144991;28;20459;-58
2021/12/25 13:57:49;;;;;;;0.00;0.00;;;7.40;98.20;;;;;;4144906;28;20042;-58
2021/12/25 14:00:44;;;;;;;0.00;0.00;;;7.40;98.30;;;;;;4160843;28;20123;-57
2021/12/25 14:03:14;;;;;;;0.00;0.00;;;7.40;98.40;;;;;;4160901;28;20503;-58
2021/12/25 14:05:40;;;;;;;0.00;0.00;;;7.40;98.50;;;;;;4161092;28;20117;-58
2021/12/25 14:08:03;;;;;;;0.00;0.00;;;7.40;98.60;;;;;;4161038;28;20600;-58
2021/12/25 14:10:29;;;;;;;0.00;0.00;;;7.50;98.80;;;;;;4174994;28;20048;-58
2021/12/25 14:12:55;;;;;;;0.00;0.00;;;7.50;98.80;;;;;;4161074;28;20042;-58
2021/12/25 14:15:20;;;;;;;0.00;0.00;;;7.50;98.80;;;;;;4161062;28;20056;-59
2021/12/25 14:17:44;;;;;;;0.00;0.00;;;7.60;98.90;;;;;;4174610;28;20044;-58
2021/12/25 14:20:16;;;;;;;0.00;0.00;;;7.70;98.90;;;;;;4160753;28;20499;-59
2021/12/25 14:22:40;;;;;;;0.00;0.00;;;7.80;98.90;;;;;;4161137;28;20067;-60